createdAt,value
2022-10-15T00:00:12.434Z,19.45
2022-10-15T00:02:38.853Z,22.00
2022-10-15T00:05:05.501Z,23.97
2022-10-15T00:07:31.923Z,21.30
2022-10-15T00:09:58.438Z,23.63
2022-10-15T00:12:25.019Z,23.88
2022-10-15T00:14:51.468Z,20.38
2022-10-15T00:17:17.901Z,22.43
2022-10-15T00:19:44.341Z,23.00
2022-10-15T00:22:10.831Z,22.85
2022-10-15T00:24:37.476Z,24.73
2022-10-15T00:27:04.021Z,21.42
2022-10-15T00:29:30.455Z,25.13
2022-10-15T00:31:57.121Z,24.42
2022-10-15T00:34:23.599Z,19.45
2022-10-15T00:36:50.570Z,21.48
2022-10-15T00:39:17.489Z,23.05
2022-10-15T00:41:45.005Z,27.93
2022-10-15T00:44:29.328Z,22.75
2022-10-15T00:47:01.757Z,25.00
2022-10-15T00:49:40.323Z,25.70
2022-10-15T00:52:11.645Z,23.33
2022-10-15T00:54:44.502Z,25.23
2022-10-15T00:57:11.931Z,28.85
2022-10-15T00:59:47.635Z,25.75
2022-10-15T01:02:14.268Z,24.15
2022-10-15T01:04:42.122Z,21.83
2022-10-15T01:07:08.915Z,22.77
2022-10-15T01:09:35.654Z,20.60
2022-10-15T01:12:03.819Z,23.55
2022-10-15T01:14:43.294Z,23.25
2022-10-15T01:17:33.157Z,26.17
2022-10-15T01:20:31.276Z,23.07
2022-10-15T01:23:28.162Z,21.08
2022-10-15T01:26:36.607Z,23.88
2022-10-15T01:29:30.193Z,24.63
2022-10-15T01:32:04.054Z,22.35
2022-10-15T01:34:47.491Z,29.87
2022-10-15T01:37:19.022Z,26.80
2022-10-15T01:39:52.949Z,27.25
2022-10-15T01:42:29.246Z,28.27
2022-10-15T01:45:01.136Z,30.98
2022-10-15T01:47:36.209Z,27.03
2022-10-15T01:50:05.961Z,27.70
2022-10-15T01:52:37.160Z,29.98
2022-10-15T01:55:07.070Z,30.95
2022-10-15T01:57:34.634Z,29.60
2022-10-15T02:00:04.342Z,27.47
2022-10-15T02:02:30.833Z,25.58
2022-10-15T02:04:57.318Z,27.40
2022-10-15T02:07:37.674Z,26.30
2022-10-15T02:10:23.144Z,28.60
2022-10-15T02:13:04.685Z,31.63
2022-10-15T02:15:52.932Z,28.63
2022-10-15T02:18:36.154Z,28.75
2022-10-15T02:21:14.491Z,31.17
2022-10-15T02:24:02.345Z,30.27
2022-10-15T02:26:30.516Z,32.83
2022-10-15T02:29:00.245Z,30.52
2022-10-15T02:31:31.573Z,32.28
2022-10-15T02:34:02.453Z,32.00
2022-10-15T02:36:29.984Z,40.83
2022-10-15T02:38:59.891Z,33.63
2022-10-15T02:41:29.335Z,43.38
2022-10-15T02:43:55.791Z,38.88
2022-10-15T02:46:22.279Z,38.58
2022-10-15T02:48:48.678Z,36.58
2022-10-15T02:51:15.136Z,39.00
2022-10-15T02:53:41.537Z,38.45
2022-10-15T02:56:07.934Z,38.15
2022-10-15T02:58:34.429Z,35.30
2022-10-15T03:01:00.882Z,33.63
2022-10-15T03:03:27.459Z,37.13
2022-10-15T03:05:54.078Z,33.72
2022-10-15T03:08:20.540Z,39.95
2022-10-15T03:10:47.005Z,35.80
2022-10-15T03:13:13.874Z,32.22
2022-10-15T03:15:40.397Z,30.97
2022-10-15T03:18:07.756Z,43.20
2022-10-15T03:20:34.389Z,46.33
2022-10-15T03:23:00.931Z,39.00
2022-10-15T03:25:27.399Z,43.20
2022-10-15T03:27:53.876Z,38.60
2022-10-15T03:30:20.394Z,43.65
2022-10-15T03:32:48.254Z,38.05
2022-10-15T03:35:15.005Z,32.00
2022-10-15T03:37:41.479Z,33.78
2022-10-15T03:40:13.437Z,33.27
2022-10-15T03:42:41.266Z,32.58
2022-10-15T03:45:08.613Z,29.83
2022-10-15T03:47:35.224Z,31.45
2022-10-15T03:50:01.768Z,33.50
2022-10-15T03:52:28.188Z,31.87
2022-10-15T03:54:54.610Z,32.50
2022-10-15T03:57:21.083Z,36.00
2022-10-15T03:59:47.527Z,29.23
2022-10-15T04:02:13.954Z,30.20
2022-10-15T04:04:40.377Z,32.90
2022-10-15T04:07:06.789Z,29.40
2022-10-15T04:09:33.261Z,28.80
2022-10-15T04:11:59.722Z,32.33
2022-10-15T04:14:26.254Z,27.65
2022-10-15T04:16:52.714Z,27.50
2022-10-15T04:19:19.157Z,28.80
2022-10-15T04:21:45.552Z,27.48
2022-10-15T04:24:12.018Z,27.40
2022-10-15T04:26:38.528Z,29.70
2022-10-15T04:29:05.128Z,31.13
2022-10-15T04:31:31.696Z,33.30
2022-10-15T04:33:58.110Z,32.30
2022-10-15T04:36:24.544Z,30.20
2022-10-15T04:38:52.743Z,39.05
2022-10-15T04:41:19.215Z,39.97
2022-10-15T04:43:45.628Z,32.05
2022-10-15T04:46:12.412Z,37.88
2022-10-15T04:48:42.157Z,29.98
2022-10-15T04:51:16.209Z,30.80
2022-10-15T04:53:43.191Z,32.93
2022-10-15T04:56:17.950Z,28.77
2022-10-15T04:58:46.445Z,31.95
2022-10-15T05:01:15.719Z,29.25
2022-10-15T05:03:45.267Z,29.05
2022-10-15T05:06:17.990Z,27.13
2022-10-15T05:08:44.989Z,27.63
2022-10-15T05:11:23.289Z,34.05
2022-10-15T05:13:50.199Z,29.95
2022-10-15T05:16:27.984Z,28.85
2022-10-15T05:19:02.431Z,28.60
2022-10-15T05:21:29.435Z,33.63
2022-10-15T05:23:55.888Z,35.35
2022-10-15T05:26:24.183Z,40.60
2022-10-15T05:28:51.498Z,35.80
2022-10-15T05:31:22.538Z,40.07
2022-10-15T05:33:51.431Z,51.92
2022-10-15T05:36:19.642Z,57.72
2022-10-15T05:38:48.254Z,55.13
2022-10-15T05:41:15.239Z,58.60
2022-10-15T05:43:42.137Z,67.27
2022-10-15T05:46:09.021Z,55.00
2022-10-15T05:48:35.464Z,70.07
2022-10-15T05:51:03.901Z,64.30
2022-10-15T05:53:30.594Z,67.45
2022-10-15T05:55:58.668Z,62.97
2022-10-15T05:58:26.699Z,59.33
2022-10-15T06:00:54.873Z,69.43
2022-10-15T06:03:21.496Z,62.53
2022-10-15T06:05:48.398Z,52.83
2022-10-15T06:08:15.105Z,51.37
2022-10-15T06:10:41.665Z,58.05
2022-10-15T06:13:08.591Z,55.13
2022-10-15T06:15:35.247Z,57.55
2022-10-15T06:18:01.687Z,57.88
2022-10-15T06:20:28.159Z,58.93
2022-10-15T06:23:01.344Z,57.08
2022-10-15T06:25:28.415Z,53.50
2022-10-15T06:27:54.962Z,51.90
2022-10-15T06:30:21.479Z,50.45
2022-10-15T06:32:52.422Z,55.37
2022-10-15T06:35:20.988Z,50.92
2022-10-15T06:37:47.946Z,48.65
2022-10-15T06:40:15.747Z,49.70
2022-10-15T06:42:42.976Z,45.47
2022-10-15T06:45:10.831Z,42.20
2022-10-15T06:47:38.275Z,42.90
2022-10-15T06:50:05.948Z,42.80
2022-10-15T06:52:33.146Z,43.05
2022-10-15T06:54:59.730Z,40.65
2022-10-15T06:57:28.066Z,40.17
2022-10-15T06:59:54.710Z,38.55
2022-10-15T07:02:22.117Z,40.42
2022-10-15T07:04:49.272Z,35.85
2022-10-15T07:07:15.684Z,35.58
2022-10-15T07:09:42.319Z,36.67
2022-10-15T07:12:08.778Z,34.05
2022-10-15T07:14:39.957Z,29.63
2022-10-15T07:17:09.090Z,29.60
2022-10-15T07:19:35.609Z,30.50
2022-10-15T07:22:02.101Z,28.87
2022-10-15T07:24:28.546Z,31.85
2022-10-15T07:26:54.946Z,28.65
2022-10-15T07:29:21.378Z,29.52
2022-10-15T07:31:47.829Z,26.83
2022-10-15T07:34:14.390Z,27.87
2022-10-15T07:36:41.064Z,27.88
2022-10-15T07:39:08.620Z,28.50
2022-10-15T07:41:35.041Z,27.52
2022-10-15T07:44:01.616Z,26.45
2022-10-15T07:46:28.243Z,32.80
2022-10-15T07:48:54.746Z,27.85
2022-10-15T07:51:21.159Z,27.40
2022-10-15T07:53:47.644Z,25.55
2022-10-15T07:56:15.818Z,25.15
2022-10-15T07:58:43.172Z,24.30
2022-10-15T08:01:11.011Z,21.48
2022-10-15T08:03:37.990Z,23.02
2022-10-15T08:06:06.442Z,22.10
2022-10-15T08:08:34.319Z,21.30
2022-10-15T08:11:11.464Z,23.40
2022-10-15T08:13:41.168Z,19.85
2022-10-15T08:16:09.552Z,20.77
2022-10-15T08:18:36.350Z,20.50
2022-10-15T08:21:03.238Z,19.60
2022-10-15T08:23:29.958Z,22.97
2022-10-15T08:25:59.069Z,21.65
2022-10-15T08:28:25.496Z,22.98
2022-10-15T08:30:52.001Z,21.42
2022-10-15T08:33:18.454Z,27.52
2022-10-15T08:35:44.992Z,21.10
2022-10-15T08:38:14.791Z,23.15
2022-10-15T08:40:55.991Z,19.75
2022-10-15T08:43:36.844Z,20.13
2022-10-15T08:46:11.436Z,18.48
2022-10-15T08:48:43.416Z,20.87
2022-10-15T08:51:46.356Z,21.70
2022-10-15T08:54:19.314Z,22.40
2022-10-15T08:56:51.151Z,22.92
2022-10-15T08:59:33.898Z,24.75
2022-10-15T09:02:13.507Z,20.77
2022-10-15T09:05:03.177Z,20.33
2022-10-15T09:07:37.782Z,18.52
2022-10-15T09:10:28.502Z,20.45
2022-10-15T09:13:28.119Z,20.88
2022-10-15T09:16:16.718Z,22.33
2022-10-15T09:18:49.371Z,22.83
2022-10-15T09:21:16.806Z,20.52
2022-10-15T09:23:44.259Z,22.70
2022-10-15T09:26:29.333Z,20.73
2022-10-15T09:29:05.475Z,21.23
2022-10-15T09:31:54.437Z,22.27
2022-10-15T09:34:27.718Z,21.50
2022-10-15T09:36:59.756Z,15.65
2022-10-15T09:39:35.890Z,17.90
2022-10-15T09:42:30.844Z,15.00
2022-10-15T09:45:03.950Z,15.45
2022-10-15T09:47:33.518Z,17.52
2022-10-15T09:50:01.173Z,13.57
2022-10-15T09:52:46.397Z,12.23
2022-10-15T09:55:34.494Z,13.80
2022-10-15T09:58:12.438Z,13.45
2022-10-15T10:00:55.437Z,12.63
2022-10-15T10:03:23.981Z,10.57
2022-10-15T10:05:51.346Z,14.48
2022-10-15T10:08:27.772Z,13.93
2022-10-15T10:10:57.178Z,11.88
2022-10-15T10:13:32.019Z,13.20
2022-10-15T10:16:05.139Z,14.80
2022-10-15T10:18:32.430Z,21.10
2022-10-15T10:21:01.644Z,15.57
2022-10-15T10:23:39.385Z,18.27
2022-10-15T10:26:07.728Z,16.50
2022-10-15T10:28:43.431Z,13.30
2022-10-15T10:31:11.762Z,16.20
2022-10-15T10:33:45.573Z,13.50
2022-10-15T10:36:37.274Z,16.48
2022-10-15T10:39:27.193Z,19.85
2022-10-15T10:41:53.621Z,12.77
2022-10-15T10:44:29.076Z,13.02
2022-10-15T10:47:15.676Z,14.27
2022-10-15T10:49:46.017Z,15.35
2022-10-15T10:52:22.481Z,13.90
2022-10-15T10:54:57.693Z,13.50
2022-10-15T10:57:43.065Z,14.68
2022-10-15T11:00:17.025Z,13.77
2022-10-15T11:02:44.163Z,10.65
2022-10-15T11:05:11.934Z,12.70
2022-10-15T11:07:47.307Z,13.23
2022-10-15T11:10:24.084Z,14.50
2022-10-15T11:13:31.316Z,10.27
2022-10-15T11:16:04.031Z,9.77
2022-10-15T11:18:36.438Z,11.85
2022-10-15T11:21:08.918Z,10.43
2022-10-15T11:24:16.878Z,11.45
2022-10-15T11:27:14.598Z,11.70
2022-10-15T11:29:53.769Z,10.48
2022-10-15T11:32:25.594Z,11.90
2022-10-15T11:35:07.397Z,10.38
2022-10-15T11:37:36.796Z,9.23
2022-10-15T11:40:13.010Z,9.47
2022-10-15T11:42:59.990Z,9.60
2022-10-15T11:45:29.390Z,9.00
2022-10-15T11:48:01.751Z,9.27
2022-10-15T11:50:41.780Z,10.68
2022-10-15T11:53:20.303Z,8.50
2022-10-15T11:55:54.054Z,7.85
2022-10-15T11:58:33.989Z,7.40
2022-10-15T12:01:06.782Z,8.43
2022-10-15T12:03:40.588Z,7.72
2022-10-15T12:06:10.891Z,7.23
2022-10-15T12:08:39.881Z,6.05
2022-10-15T12:11:18.078Z,7.50
2022-10-15T12:14:13.436Z,7.72
2022-10-15T12:16:50.541Z,7.82
2022-10-15T12:19:28.919Z,6.87
2022-10-15T12:21:55.281Z,7.07
2022-10-15T12:24:40.485Z,7.55
2022-10-15T12:27:18.939Z,6.97
2022-10-15T12:29:47.757Z,6.30
2022-10-15T12:32:29.645Z,7.63
2022-10-15T12:35:02.009Z,7.40
2022-10-15T12:37:31.702Z,7.60
2022-10-15T12:40:01.813Z,7.28
2022-10-15T12:42:35.062Z,9.13
2022-10-15T12:45:06.264Z,7.77
2022-10-15T12:47:54.300Z,9.43
2022-10-15T12:50:26.127Z,8.68
2022-10-15T12:53:00.586Z,9.65
2022-10-15T12:55:27.083Z,8.65
2022-10-15T12:57:55.850Z,9.43
2022-10-15T13:00:40.223Z,8.57
2022-10-15T13:03:17.346Z,7.18
2022-10-15T13:05:45.138Z,9.30
2022-10-15T13:08:23.157Z,6.32
2022-10-15T13:10:54.137Z,8.00
2022-10-15T13:13:25.090Z,7.38
2022-10-15T13:16:06.922Z,6.45
2022-10-15T13:18:33.535Z,7.47
2022-10-15T13:23:34.088Z,9.37
2022-10-15T13:26:16.917Z,8.30
2022-10-15T13:28:44.061Z,8.52
2022-10-15T13:31:30.575Z,8.30
2022-10-15T13:34:31.766Z,9.13
2022-10-15T13:37:01.490Z,7.77
2022-10-15T13:39:37.699Z,7.60
2022-10-15T13:42:14.770Z,7.75
2022-10-15T13:44:42.215Z,8.60
2022-10-15T13:47:27.471Z,8.60
2022-10-15T13:50:25.457Z,8.63
2022-10-15T13:53:03.924Z,9.57
2022-10-15T13:55:36.449Z,8.60
2022-10-15T13:58:26.606Z,9.15
2022-10-15T14:00:59.960Z,7.65
2022-10-15T14:03:31.729Z,7.50
2022-10-15T14:06:08.525Z,7.68
2022-10-15T14:08:36.861Z,7.57
2022-10-15T14:11:03.709Z,7.55
2022-10-15T14:13:30.183Z,6.90
2022-10-15T14:18:37.001Z,5.22
2022-10-15T14:21:10.176Z,5.78
2022-10-15T14:23:36.686Z,5.80
2022-10-15T14:26:04.310Z,5.45
2022-10-15T14:28:33.040Z,5.07
2022-10-15T14:31:01.087Z,3.85
2022-10-15T14:33:43.878Z,4.80
2022-10-15T14:36:22.252Z,5.60
2022-10-15T14:38:49.603Z,5.22
2022-10-15T14:41:28.351Z,5.27
2022-10-15T14:44:16.480Z,5.07
2022-10-15T14:46:46.817Z,5.43
2022-10-15T14:49:19.273Z,4.43
2022-10-15T14:51:46.369Z,4.28
2022-10-15T14:54:21.415Z,9.80
2022-10-15T14:56:50.726Z,4.45
2022-10-15T14:59:19.683Z,3.38
2022-10-15T15:02:01.823Z,4.03
2022-10-15T15:04:38.772Z,3.00
2022-10-15T15:07:19.710Z,2.63
2022-10-15T15:09:51.530Z,2.40
2022-10-15T15:12:25.511Z,2.78
2022-10-15T15:14:54.219Z,3.55
2022-10-15T15:17:24.431Z,4.72
2022-10-15T15:19:52.464Z,2.97
2022-10-15T15:22:27.547Z,4.20
2022-10-15T15:24:54.396Z,3.88
2022-10-15T15:27:24.298Z,2.90
2022-10-15T15:29:51.937Z,2.28
2022-10-15T15:32:19.274Z,2.30
2022-10-15T15:34:45.883Z,2.20
2022-10-15T15:37:18.173Z,2.63
2022-10-15T15:39:44.836Z,2.20
2022-10-15T15:42:17.339Z,4.15
2022-10-15T15:44:44.010Z,2.20
2022-10-15T15:47:11.315Z,2.85
2022-10-15T15:49:38.325Z,4.75
2022-10-15T15:52:13.554Z,2.25
2022-10-15T15:54:40.926Z,5.28
2022-10-15T15:57:07.389Z,2.43
2022-10-15T15:59:33.817Z,5.22
2022-10-15T16:02:00.665Z,2.63
2022-10-15T16:04:27.261Z,2.78
2022-10-15T16:06:53.663Z,3.28
2022-10-15T16:09:22.659Z,3.27
2022-10-15T16:11:50.207Z,3.88
2022-10-15T16:14:17.302Z,2.65
2022-10-15T16:16:43.946Z,2.10
2022-10-15T16:19:10.549Z,4.45
2022-10-15T16:21:37.014Z,2.83
2022-10-15T16:24:03.589Z,2.88
2022-10-15T16:26:30.081Z,5.38
2022-10-15T16:28:56.742Z,3.08
2022-10-15T16:31:29.543Z,2.42
2022-10-15T16:33:57.388Z,2.43
2022-10-15T16:36:24.162Z,3.40
2022-10-15T16:38:50.690Z,2.00
2022-10-15T16:41:19.191Z,3.15
2022-10-15T16:43:47.194Z,3.75
2022-10-15T16:46:14.295Z,3.37
2022-10-15T16:48:40.739Z,3.00
2022-10-15T16:51:12.402Z,3.25
2022-10-15T16:53:40.784Z,3.13
2022-10-15T16:56:27.870Z,2.88
2022-10-15T16:58:56.074Z,2.83
2022-10-15T17:01:25.761Z,3.20
2022-10-15T17:03:52.927Z,4.78
2022-10-15T17:06:30.501Z,4.32
2022-10-15T17:08:59.430Z,4.10
2022-10-15T17:11:31.810Z,8.00
2022-10-15T17:14:00.374Z,5.60
2022-10-15T17:16:29.809Z,3.70
2022-10-15T17:18:57.320Z,5.18
2022-10-15T17:21:26.414Z,3.97
2022-10-15T17:23:58.835Z,6.80
2022-10-15T17:26:28.872Z,3.90
2022-10-15T17:28:55.861Z,4.05
2022-10-15T17:31:24.651Z,5.03
2022-10-15T17:33:56.077Z,4.32
2022-10-15T17:36:24.324Z,3.40
2022-10-15T17:38:50.796Z,5.93
2022-10-15T17:41:20.178Z,4.70
2022-10-15T17:43:47.335Z,3.47
2022-10-15T17:46:19.978Z,4.07
2022-10-15T17:48:47.260Z,5.10
2022-10-15T17:51:17.426Z,3.75
2022-10-15T17:53:44.716Z,3.22
2022-10-15T17:56:14.089Z,3.55
2022-10-15T17:58:41.275Z,7.80
2022-10-15T18:01:27.857Z,7.60
2022-10-15T18:04:02.754Z,8.88
2022-10-15T18:06:29.327Z,4.15
2022-10-15T18:08:55.899Z,5.75
2022-10-15T18:11:32.068Z,9.23
2022-10-15T18:13:58.568Z,5.40
2022-10-15T18:16:25.142Z,5.75
2022-10-15T18:18:53.291Z,4.60
2022-10-15T18:21:21.763Z,4.40
2022-10-15T18:23:48.486Z,4.55
2022-10-15T18:26:23.820Z,5.87
2022-10-15T18:28:52.367Z,5.63
2022-10-15T18:31:20.063Z,5.05
2022-10-15T18:33:51.543Z,6.55
2022-10-15T18:36:23.100Z,4.72
2022-10-15T18:38:49.952Z,3.80
2022-10-15T18:41:22.418Z,4.40
2022-10-15T18:43:53.911Z,11.45
2022-10-15T18:46:21.231Z,5.15
2022-10-15T18:48:48.813Z,5.65
2022-10-15T18:51:15.773Z,4.63
2022-10-15T18:53:42.330Z,4.90
2022-10-15T18:56:10.029Z,4.22
2022-10-15T18:58:38.898Z,5.65
2022-10-15T19:01:24.709Z,5.45
2022-10-15T19:03:52.547Z,5.83
2022-10-15T19:06:19.910Z,5.45
2022-10-15T19:08:46.392Z,6.18
2022-10-15T19:11:12.872Z,5.10
2022-10-15T19:13:39.359Z,5.68
2022-10-15T19:16:06.309Z,5.07
2022-10-15T19:18:35.250Z,3.72
2022-10-15T19:21:01.667Z,4.55
2022-10-15T19:23:28.185Z,3.80
2022-10-15T19:25:54.727Z,4.88
2022-10-15T19:28:21.218Z,8.47
2022-10-15T19:30:59.066Z,3.13
2022-10-15T19:33:26.778Z,3.47
2022-10-15T19:35:53.575Z,5.47
2022-10-15T19:38:20.247Z,6.13
2022-10-15T19:40:49.384Z,4.40
2022-10-15T19:43:17.916Z,4.63
2022-10-15T19:45:45.150Z,9.95
2022-10-15T19:48:13.750Z,5.53
2022-10-15T19:50:41.888Z,8.23
2022-10-15T19:53:11.444Z,7.10
2022-10-15T19:55:39.411Z,6.55
2022-10-15T19:58:06.669Z,5.80
2022-10-15T20:00:33.692Z,9.95
2022-10-15T20:03:00.211Z,8.50
2022-10-15T20:05:26.644Z,5.93
2022-10-15T20:07:53.079Z,7.88
2022-10-15T20:10:23.587Z,9.32
2022-10-15T20:12:52.137Z,4.20
2022-10-15T20:15:18.715Z,6.07
2022-10-15T20:17:45.175Z,6.43
2022-10-15T20:20:11.662Z,4.20
2022-10-15T20:22:38.090Z,6.75
2022-10-15T20:25:04.810Z,4.50
2022-10-15T20:27:31.231Z,7.65
2022-10-15T20:29:57.738Z,5.97
2022-10-15T20:32:34.230Z,7.82
2022-10-15T20:35:02.098Z,4.55
2022-10-15T20:37:28.533Z,8.25
2022-10-15T20:42:26.530Z,6.10
2022-10-15T20:44:53.142Z,5.60
2022-10-15T20:47:20.222Z,6.82
2022-10-15T20:49:49.908Z,5.00
2022-10-15T20:52:16.341Z,13.45
2022-10-15T20:54:42.898Z,7.00
2022-10-15T20:57:10.211Z,7.30
2022-10-15T20:59:36.735Z,10.48
2022-10-15T21:02:03.426Z,8.40
2022-10-15T21:04:29.858Z,7.32
2022-10-15T21:06:57.168Z,5.13
2022-10-15T21:09:23.688Z,10.18
2022-10-15T21:11:50.130Z,5.47
2022-10-15T21:14:16.589Z,4.38
2022-10-15T21:16:43.090Z,5.40
2022-10-15T21:19:09.537Z,5.27
2022-10-15T21:21:36.038Z,5.85
2022-10-15T21:24:02.480Z,7.75
2022-10-15T21:26:29.117Z,7.78
2022-10-15T21:28:57.066Z,3.58
2022-10-15T21:31:24.121Z,9.40
2022-10-15T21:33:50.916Z,4.68
2022-10-15T21:36:26.591Z,3.78
2022-10-15T21:39:06.244Z,3.92
2022-10-15T21:41:35.252Z,3.33
2022-10-15T21:44:03.369Z,3.37
2022-10-15T21:46:31.275Z,3.50
2022-10-15T21:48:58.562Z,3.35
2022-10-15T21:51:27.509Z,6.70
2022-10-15T21:53:55.442Z,4.03
2022-10-15T21:56:22.906Z,9.47
2022-10-15T21:58:49.438Z,3.92
2022-10-15T22:01:21.936Z,4.30
2022-10-15T22:03:50.207Z,4.45
2022-10-15T22:06:17.971Z,5.35
2022-10-15T22:08:45.133Z,5.77
2022-10-15T22:11:13.395Z,3.30
2022-10-15T22:13:41.175Z,5.38
2022-10-15T22:16:08.510Z,5.45
2022-10-15T22:18:35.013Z,4.10
2022-10-15T22:21:29.403Z,4.87
2022-10-15T22:24:01.367Z,4.85
2022-10-15T22:26:34.730Z,6.00
2022-10-15T22:29:03.320Z,4.05
2022-10-15T22:31:29.935Z,6.22
2022-10-15T22:33:58.461Z,4.57
2022-10-15T22:36:27.628Z,4.18
2022-10-15T22:39:02.578Z,5.18
2022-10-15T22:41:31.635Z,3.47
2022-10-15T22:43:58.464Z,5.38
2022-10-15T22:46:26.062Z,8.27
2022-10-15T22:48:53.632Z,3.50
2022-10-15T22:51:20.979Z,7.63
2022-10-15T22:53:47.946Z,6.15
2022-10-15T22:56:17.292Z,5.50
2022-10-15T22:58:44.417Z,4.03
2022-10-15T23:01:19.858Z,6.05
2022-10-15T23:03:49.127Z,5.45
2022-10-15T23:06:16.474Z,5.72
2022-10-15T23:08:43.594Z,4.85
2022-10-15T23:11:17.790Z,5.43
2022-10-15T23:13:45.947Z,6.22
2022-10-15T23:16:18.689Z,5.20
2022-10-15T23:18:46.854Z,3.60
2022-10-15T23:21:19.658Z,4.18
2022-10-15T23:23:46.322Z,4.20
2022-10-15T23:26:14.724Z,9.07
2022-10-15T23:28:42.293Z,10.77
2022-10-15T23:31:25.689Z,5.88
2022-10-15T23:33:53.625Z,4.43
2022-10-15T23:36:21.245Z,7.13
2022-10-15T23:38:56.775Z,4.45
2022-10-15T23:41:24.131Z,8.57
2022-10-15T23:43:50.869Z,4.55
2022-10-15T23:46:17.983Z,5.22
2022-10-15T23:48:44.419Z,7.00
2022-10-15T23:51:13.380Z,4.53
2022-10-15T23:53:40.181Z,5.10
2022-10-15T23:56:06.730Z,6.97
2022-10-15T23:58:33.234Z,5.30
